Time;durP1;ratioP1;P1;durP2;ratioP2;P2;SDS_P1;SDS_P2;PMS_P1;PMS_P2;Temp;Humidity;BMP_temperature;BMP_pressure;BME280_temperature;BME280_humidity;BME280_pressure;Samples;Min_cycle;Max_cycle;Signal;HPM_P1;HPM_P2
2022/09/12 00:01:03;;;;;;;31.20;23.48;;;;;;;;;;4993425;28;20409;-83
2022/09/12 00:03:28;;;;;;;32.40;25.83;;;;;;;13.35;100.00;68256.84;5005560;28;20045;-83
2022/09/12 00:05:54;;;;;;;35.72;25.52;;;;;;;13.35;100.00;68251.50;5008012;28;20489;-83
2022/09/12 00:08:19;;;;;;;33.67;25.73;;;;;;;;;;5008699;28;20064;-83
2022/09/12 00:10:44;;;;;;;35.05;24.95;;;;;;;13.30;100.00;68246.38;5005441;28;20053;-83
2022/09/12 00:13:10;;;;;;;33.97;25.38;;;;;;;13.22;100.00;68237.25;5007045;28;20116;-83
2022/09/12 00:15:40;;;;;;;36.53;24.67;;;;;;;13.23;100.00;68238.38;4993713;28;20516;-83
2022/09/12 00:18:08;;;;;;;33.03;23.90;;;;;;;13.16;100.00;68230.41;5002991;28;20076;-83
2022/09/12 00:20:33;;;;;;;34.15;23.88;;;;;;;;;;5006698;28;20042;-83
2022/09/12 00:22:58;;;;;;;30.08;22.65;;;;;;;13.17;100.00;68236.91;5008136;28;20052;-83
2022/09/12 00:25:24;;;;;;;31.08;23.33;;;;;;;13.16;100.00;68230.41;5009807;28;20287;-83
2022/09/12 00:27:49;;;;;;;30.70;24.17;;;;;;;13.14;100.00;68227.56;5008685;28;20034;-83
2022/09/12 00:30:14;;;;;;;30.48;23.92;;;;;;;13.14;100.00;68228.13;4999578;28;20054;-83
2022/09/12 00:32:40;;;;;;;29.90;23.75;;;;;;;13.09;100.00;68222.47;5000764;28;20096;-83
2022/09/12 00:35:06;;;;;;;34.53;25.42;;;;;;;13.06;100.00;68219.63;5001622;28;20045;-83
2022/09/12 00:37:31;;;;;;;33.05;23.92;;;;;;;13.09;100.00;68227.81;5011375;28;20408;-83
2022/09/12 00:39:56;;;;;;;33.17;24.45;;;;;;;13.06;100.00;68219.63;5006337;28;20041;-83
2022/09/12 00:42:22;;;;;;;31.38;23.23;;;;;;;12.95;100.00;68211.91;5008156;28;20329;-83
2022/09/12 00:44:50;;;;;;;34.65;25.30;;;;;;;12.99;100.00;68211.09;4999590;28;20049;-83
2022/09/12 00:47:21;;;;;;;34.73;24.47;;;;;;;12.96;100.00;68208.25;5002322;28;20034;-83
2022/09/12 00:49:46;;;;;;;32.47;23.13;;;;;;;12.95;100.00;68211.91;5004690;28;20048;-83
2022/09/12 00:52:15;;;;;;;37.03;25.33;;;;;;;12.97;100.00;68208.81;4998051;28;20340;-84
2022/09/12 00:54:46;;;;;;;36.95;26.95;;;;;;;12.96;100.00;68213.59;4998915;28;20046;-84
2022/09/12 00:57:13;;;;;;;37.53;25.95;;;;;;;;;;5001217;28;20129;-83
2022/09/12 00:59:44;;;;;;;37.72;27.25;;;;;;;;;;5006060;28;20612;-83
2022/09/12 01:02:10;;;;;;;34.28;24.08;;;;;;;;;;5003472;28;20128;-84
2022/09/12 01:04:40;;;;;;;35.60;25.38;;;;;;;12.87;100.00;68195.34;4997680;28;20482;-83
2022/09/12 01:07:06;;;;;;;32.70;24.83;;;;;;;;;;5002728;28;20196;-83
2022/09/12 01:09:32;;;;;;;37.20;27.48;;;;;;;12.80;100.00;68195.97;5002487;28;20042;-83
2022/09/12 01:12:00;;;;;;;37.85;27.63;;;;;;;12.82;100.00;68198.25;5003235;28;20100;-83
2022/09/12 01:14:25;;;;;;;36.05;26.13;;;;;;;;;;4995951;28;20038;-83
2022/09/12 01:16:51;;;;;;;35.38;26.55;;;;;;;12.82;100.00;68192.91;5007357;28;20101;-83
2022/09/12 01:19:31;;;;;;;40.15;27.85;;;;;;;12.81;100.00;68189.09;4997042;28;20069;-83
2022/09/12 01:22:15;;;;;;;34.55;25.67;;;;;;;12.75;100.00;68184.38;4989598;28;20045;-83
2022/09/12 01:24:59;;;;;;;36.65;25.70;;;;;;;;;;5003035;28;20045;-83
2022/09/12 01:27:29;;;;;;;34.33;25.70;;;;;;;12.71;100.00;68179.81;4999035;28;20049;-83
2022/09/12 01:30:24;;;;;;;34.17;25.90;;;;;;;12.74;100.00;68181.13;5008533;28;20548;-83
2022/09/12 01:33:11;;;;;;;35.42;25.20;;;;;;;12.70;100.00;68184.59;4971543;28;20046;-83
2022/09/12 01:35:42;;;;;;;35.50;25.40;;;;;;;12.64;100.00;68177.78;5005181;28;20038;-84
2022/09/12 01:38:38;;;;;;;38.20;25.70;;;;;;;12.60;100.00;68162.53;4999324;28;20042;-84
2022/09/12 01:41:14;;;;;;;32.90;25.25;;;;;;;12.60;100.00;68165.22;5004669;28;20049;-84
2022/09/12 01:43:44;;;;;;;36.53;27.27;;;;;;;12.54;100.00;68161.63;5004560;28;20049;-84
2022/09/12 01:46:34;;;;;;;36.72;27.55;;;;;;;12.51;100.00;68158.22;4997990;28;20060;-84
2022/09/12 01:49:08;;;;;;;34.78;25.70;;;;;;;12.51;100.00;68163.00;4985649;28;20046;-84
2022/09/12 01:52:11;;;;;;;37.88;27.67;;;;;;;12.50;100.00;68156.53;4999824;28;20052;-84
2022/09/12 01:55:02;;;;;;;34.47;26.60;;;;;;;;;;4995337;28;20049;-84
2022/09/12 01:57:37;;;;;;;38.42;27.45;;;;;;;12.42;100.00;68148.00;4998465;28;20082;-84
2022/09/12 02:00:08;;;;;;;38.20;28.20;;;;;;;;;;5000108;28;20037;-84
2022/09/12 02:02:35;;;;;;;37.75;26.20;;;;;;;;;;4991939;28;20042;-84
2022/09/12 02:05:08;;;;;;;39.05;28.17;;;;;;;12.35;100.00;68140.63;4998214;28;20501;-84
2022/09/12 02:07:34;;;;;;;35.65;24.42;;;;;;;;;;5002311;28;20081;-84
2022/09/12 02:10:05;;;;;;;38.63;27.30;;;;;;;;;;5002572;28;20038;-84
2022/09/12 02:12:34;;;;;;;39.50;27.98;;;;;;;;;;5001408;28;20038;-83
2022/09/12 02:15:06;;;;;;;38.10;26.27;;;;;;;12.26;100.00;68130.41;5007112;28;20065;-83
2022/09/12 02:17:38;;;;;;;40.80;28.73;;;;;;;12.25;100.00;68129.25;4999917;28;20562;-84
2022/09/12 02:20:18;;;;;;;40.25;27.90;;;;;;;12.23;100.00;68132.31;5004436;28;20034;-84
2022/09/12 02:22:46;;;;;;;38.78;27.25;;;;;;;12.19;100.00;68127.78;4996627;28;20045;-84
2022/09/12 02:25:14;;;;;;;40.90;29.85;;;;;;;;;;4999116;28;20238;-84
2022/09/12 02:27:41;;;;;;;43.95;29.83;;;;;;;;;;5004567;28;20096;-84
2022/09/12 02:30:08;;;;;;;41.30;29.75;;;;;;;12.14;100.00;68122.09;4998143;28;20220;-84
2022/09/12 02:32:46;;;;;;;42.65;28.88;;;;;;;12.13;100.00;68112.94;5004587;28;20085;-84
2022/09/12 02:35:30;;;;;;;42.60;29.73;;;;;;;;;;5003672;28;20122;-84
2022/09/12 02:37:58;;;;;;;42.17;29.52;;;;;;;;;;4997545;28;20108;-84
2022/09/12 02:40:24;;;;;;;43.00;30.43;;;;;;;12.03;100.00;68110.16;4985567;28;20434;-83
2022/09/12 02:42:50;;;;;;;46.15;30.40;;;;;;;12.07;100.00;68108.81;4990942;28;20045;-83
2022/09/12 02:45:16;;;;;;;43.75;30.02;;;;;;;12.05;100.00;68106.53;5007320;28;20505;-83
2022/09/12 02:47:50;;;;;;;42.53;27.70;;;;;;;12.04;100.00;68105.41;5006604;28;20038;-83
2022/09/12 02:50:16;;;;;;;43.95;30.23;;;;;;;12.04;100.00;68105.41;4994567;28;20037;-83
2022/09/12 02:52:43;;;;;;;42.92;29.17;;;;;;;12.04;100.00;68105.97;4989906;28;20037;-84
2022/09/12 02:55:12;;;;;;;45.05;29.10;;;;;;;;;;5001154;28;20187;-84
2022/09/12 02:57:37;;;;;;;;;;;;;;;;;;5004206;28;20394;-83
2022/09/12 03:00:03;;;;;;;40.47;28.33;;;;;;;;;;5002324;28;19940;-84
2022/09/12 03:02:44;;;;;;;42.40;30.52;;;;;;;11.87;100.00;68086.66;5005867;28;20041;-83
2022/09/12 03:05:21;;;;;;;41.50;29.50;;;;;;;11.88;100.00;68093.13;4999521;28;20121;-84
2022/09/12 03:08:08;;;;;;;41.08;27.00;;;;;;;11.81;100.00;68079.81;5001294;28;20095;-84
2022/09/12 03:10:55;;;;;;;48.15;31.48;;;;;;;11.81;100.00;68085.16;5002644;28;20042;-83
2022/09/12 03:13:52;;;;;;;47.35;29.92;;;;;;;11.78;100.00;68076.97;5001956;28;20141;-83
2022/09/12 03:16:53;;;;;;;47.83;30.65;;;;;;;11.75;100.00;68070.91;5003151;28;20073;-83
2022/09/12 03:19:57;;;;;;;42.58;27.85;;;;;;;11.66;100.00;68063.34;4896872;29;20135;-83
2022/09/12 03:22:42;;;;;;;40.92;28.13;;;;;;;;;;5002060;28;20044;-83
2022/09/12 03:25:07;;;;;;;45.03;30.67;;;;;;;;;;5010038;28;20401;-83
2022/09/12 03:27:35;;;;;;;46.20;31.07;;;;;;;;;;5004252;28;20295;-83
2022/09/12 03:30:06;;;;;;;44.17;31.05;;;;;;;11.69;100.00;68072.09;5010292;28;20398;-83
2022/09/12 03:32:42;;;;;;;46.60;29.80;;;;;;;11.67;100.00;68064.47;5000496;28;20564;-83
2022/09/12 03:35:09;;;;;;;42.05;29.45;;;;;;;11.65;100.00;68059.53;5010360;28;20060;-83
2022/09/12 03:37:34;;;;;;;43.45;29.15;;;;;;;;;;5003258;28;20433;-84
2022/09/12 03:39:59;;;;;;;46.85;30.15;;;;;;;11.61;100.00;68057.66;5005805;28;20038;-84
2022/09/12 03:42:25;;;;;;;42.67;28.67;;;;;;;;;;5008715;28;20058;-83
2022/09/12 03:44:50;;;;;;;42.47;29.17;;;;;;;11.59;100.00;68055.94;5006026;28;20124;-83
2022/09/12 03:47:15;;;;;;;46.38;30.00;;;;;;;11.61;100.00;68063.00;5004176;28;20124;-84
2022/09/12 03:49:41;;;;;;;46.58;31.15;;;;;;;11.57;100.00;68061.13;4998574;28;20066;-83
2022/09/12 03:52:06;;;;;;;45.30;31.13;;;;;;;11.59;100.00;68055.38;5004785;28;20092;-84
2022/09/12 03:54:31;;;;;;;43.95;28.73;;;;;;;11.51;100.00;68044.78;5009704;28;20052;-83
2022/09/12 03:56:57;;;;;;;41.97;28.35;;;;;;;11.49;100.00;68044.59;5012146;28;20064;-83
2022/09/12 03:59:22;;;;;;;46.50;31.00;;;;;;;11.48;100.00;68041.38;5001977;28;20073;-83
2022/09/12 04:01:47;;;;;;;45.90;29.23;;;;;;;;;;5006451;28;20125;-83
2022/09/12 04:04:13;;;;;;;43.15;29.90;;;;;;;11.42;100.00;68034.56;5006931;28;20069;-83
2022/09/12 04:06:38;;;;;;;43.00;28.05;;;;;;;;;;5009879;28;21432;-83
2022/09/12 04:09:03;;;;;;;45.85;29.92;;;;;;;;;;5007554;28;20037;-83
2022/09/12 04:11:28;;;;;;;48.70;30.65;;;;;;;11.39;100.00;68033.81;5000432;28;20048;-83
2022/09/12 04:13:54;;;;;;;44.28;29.25;;;;;;;11.36;100.00;68030.41;5003745;28;20104;-83
2022/09/12 04:16:19;;;;;;;43.70;29.85;;;;;;;11.36;100.00;68030.41;5005543;28;20038;-83
2022/09/12 04:18:45;;;;;;;42.70;29.23;;;;;;;11.34;100.00;68028.16;5005699;28;20303;-83
2022/09/12 04:21:16;;;;;;;46.85;29.75;;;;;;;11.36;100.00;68035.72;5009997;28;20681;-83
2022/09/12 04:23:42;;;;;;;46.97;30.63;;;;;;;;;;4999761;28;20464;-83
2022/09/12 04:26:08;;;;;;;43.03;28.88;;;;;;;11.36;100.00;68035.72;5000724;28;20045;-83
2022/09/12 04:28:36;;;;;;;44.83;29.10;;;;;;;11.33;100.00;68031.75;5004102;28;20568;-82
2022/09/12 04:31:11;;;;;;;49.25;31.75;;;;;;;11.29;100.00;68019.81;5007744;28;20038;-83
2022/09/12 04:33:36;;;;;;;47.15;29.98;;;;;;;11.29;100.00;68030.47;5007058;28;20037;-83
2022/09/12 04:36:02;;;;;;;46.78;30.05;;;;;;;;;;5007214;28;20053;-83
2022/09/12 04:38:28;;;;;;;43.85;30.48;;;;;;;11.27;100.00;68020.19;5002966;28;20436;-83
2022/09/12 04:40:53;;;;;;;44.75;29.52;;;;;;;;;;5010761;28;20046;-83
2022/09/12 04:43:18;;;;;;;46.35;29.77;;;;;;;11.29;100.00;68027.78;5011698;28;20092;-82
2022/09/12 04:45:43;;;;;;;47.13;30.67;;;;;;;11.30;100.00;68024.16;5007312;28;20053;-83
2022/09/12 04:48:09;;;;;;;48.60;31.75;;;;;;;11.32;100.00;68025.88;5004512;28;20054;-82
2022/09/12 04:50:34;;;;;;;48.22;30.48;;;;;;;;;;5008769;28;20060;-82
2022/09/12 04:52:59;;;;;;;52.25;31.95;;;;;;;;;;5007412;28;20073;-83
2022/09/12 04:55:25;;;;;;;51.53;32.10;;;;;;;11.26;100.00;68019.63;5007505;28;20046;-82
2022/09/12 04:57:51;;;;;;;49.72;32.83;;;;;;;;;;5011310;28;20060;-83
2022/09/12 05:00:16;;;;;;;53.45;32.15;;;;;;;;;;5011610;28;20049;-82
2022/09/12 05:02:41;;;;;;;50.78;32.35;;;;;;;11.28;100.00;68026.66;5009098;28;20039;-82
2022/09/12 05:05:07;;;;;;;51.00;31.23;;;;;;;;;;5010345;28;20048;-82
2022/09/12 05:07:32;;;;;;;52.33;33.10;;;;;;;;;;5010866;28;20044;-82
2022/09/12 05:09:58;;;;;;;53.53;32.50;;;;;;;11.30;100.00;68028.91;5004118;28;20046;-81
2022/09/12 05:12:24;;;;;;;51.28;33.75;;;;;;;;;;5012029;28;20274;-81
2022/09/12 05:14:49;;;;;;;59.92;35.22;;;;;;;11.40;100.00;68040.28;5009342;28;20042;-81
2022/09/12 05:17:14;;;;;;;63.40;35.35;;;;;;;11.44;100.00;68044.25;5010280;28;20042;-82
2022/09/12 05:19:40;;;;;;;63.25;36.55;;;;;;;11.50;100.00;68051.63;5010205;28;20057;-81
2022/09/12 05:22:05;;;;;;;55.63;35.40;;;;;;;11.52;100.00;68048.56;5013474;28;20045;-82
2022/09/12 05:24:31;;;;;;;60.00;36.90;;;;;;;;;;5012227;28;20037;-81
2022/09/12 05:26:57;;;;;;;60.95;37.50;;;;;;;11.62;100.00;68059.34;5015041;28;20089;-81
2022/09/12 05:29:24;;;;;;;61.88;37.05;;;;;;;11.67;100.00;68065.03;5012785;28;20045;-81
2022/09/12 05:31:50;;;;;;;55.80;34.15;;;;;;;11.72;100.00;68070.16;5014154;28;20057;-80
2022/09/12 05:34:16;;;;;;;61.75;36.63;;;;;;;11.77;100.00;68081.19;5026329;28;20090;-81
2022/09/12 05:36:42;;;;;;;60.55;37.38;;;;;;;11.84;100.00;68083.22;5024655;28;20037;-81
2022/09/12 05:39:07;;;;;;;64.85;38.70;;;;;;;11.92;100.00;68087.56;5022620;28;20048;-81
2022/09/12 05:41:33;;;;;;;64.38;40.67;;;;;;;11.99;100.00;68100.28;5022807;28;20040;-82
2022/09/12 05:44:00;;;;;;;69.93;42.10;;;;;;;12.09;100.00;68111.66;5012349;28;20133;-82
2022/09/12 05:46:28;;;;;;;73.55;43.58;;;;;;;12.14;100.00;68122.09;5009554;28;20034;-82
2022/09/12 05:48:54;;;;;;;71.18;42.17;;;;;;;12.24;100.00;68125.44;5010676;28;20038;-83
2022/09/12 05:51:25;;;;;;;71.70;44.45;;;;;;;12.32;100.00;68137.22;5011394;28;20038;-83
2022/09/12 05:53:53;;;;;;;81.32;47.97;;;;;;;12.39;100.00;68144.59;5009768;28;20045;-82
2022/09/12 05:56:22;;;;;;;73.32;44.15;;;;;;;12.48;100.00;68154.81;5006880;28;20042;-82
2022/09/12 05:58:54;;;;;;;78.93;46.55;;;;;;;12.57;100.00;68164.47;4991934;28;20445;-83
2022/09/12 06:01:20;;;;;;;78.63;47.58;;;;;;;12.68;100.00;68174.31;5007449;28;20057;-83
2022/09/12 06:03:51;;;;;;;79.13;46.63;;;;;;;12.78;100.00;68185.69;5009838;28;20140;-82
2022/09/12 06:06:19;;;;;;;81.72;45.65;;;;;;;12.86;100.00;68192.13;5005440;28;20043;-83
2022/09/12 06:08:45;;;;;;;82.35;45.83;;;;;;;;;;5010599;28;20107;-83
2022/09/12 06:11:13;;;;;;;77.80;46.47;;;;;;;13.05;100.00;68217.91;5008785;28;20071;-83
2022/09/12 06:13:41;;;;;;;82.97;45.95;;;;;;;13.12;100.00;68225.88;5006569;28;20051;-82
2022/09/12 06:16:11;;;;;;;80.30;46.88;;;;;;;13.17;100.00;68236.34;5010560;28;20442;-82
2022/09/12 06:18:37;;;;;;;75.57;44.28;;;;;;;;;;5008606;28;20310;-84
2022/09/12 06:21:11;;;;;;;73.25;45.30;;;;;;;13.27;100.00;68242.38;5011940;28;20042;-82
2022/09/12 06:23:37;;;;;;;70.47;44.55;;;;;;;13.32;100.00;68248.06;5010991;28;20129;-83
2022/09/12 06:26:03;;;;;;;71.78;42.95;;;;;;;;;;4992545;28;20034;-83
2022/09/12 06:28:29;;;;;;;72.05;44.28;;;;;;;;;;5002764;28;21812;-83
2022/09/12 06:31:00;;;;;;;67.25;41.35;;;;;;;;;;5005401;28;20297;-83
2022/09/12 06:33:25;;;;;;;69.28;43.35;;;;;;;;;;5002429;28;20038;-83
2022/09/12 06:35:50;;;;;;;68.43;43.90;;;;;;;13.53;100.00;68276.75;5008693;28;20064;-82
2022/09/12 06:38:17;;;;;;;67.55;42.58;;;;;;;13.58;100.00;68276.50;5002361;28;20285;-84
2022/09/12 06:40:43;;;;;;;65.20;40.22;;;;;;;;;;4993566;28;20520;-82
2022/09/12 06:43:11;;;;;;;68.38;43.03;;;;;;;13.66;100.00;68282.94;4997430;28;20056;-82
2022/09/12 06:45:36;;;;;;;67.80;41.58;;;;;;;13.70;100.00;68287.50;5009999;28;20120;-83
2022/09/12 06:48:02;;;;;;;63.40;40.63;;;;;;;13.72;100.00;68292.44;5024906;28;20125;-83
2022/09/12 06:50:27;;;;;;;62.92;39.17;;;;;;;;;;4997104;28;20070;-82
2022/09/12 06:52:52;;;;;;;66.75;42.30;;;;;;;13.83;100.00;68304.38;5010249;28;20034;-82
2022/09/12 06:55:18;;;;;;;60.95;41.50;;;;;;;13.89;100.00;68311.75;5013006;28;20078;-82
2022/09/12 06:57:43;;;;;;;63.92;40.53;;;;;;;13.92;100.00;68309.25;5006625;28;20054;-82
2022/09/12 07:00:09;;;;;;;62.78;38.42;;;;;;;;;;5015555;28;20045;-83
2022/09/12 07:02:34;;;;;;;60.67;38.78;;;;;;;14.03;100.00;68327.13;5010593;28;20501;-83
2022/09/12 07:04:59;;;;;;;61.65;39.28;;;;;;;14.08;100.00;68330.16;5010389;28;20050;-82
2022/09/12 07:07:25;;;;;;;60.13;39.95;;;;;;;14.12;100.00;68336.81;4999669;28;20061;-83
2022/09/12 07:09:50;;;;;;;58.63;38.65;;;;;;;14.17;100.00;68342.50;5005677;28;20046;-82
2022/09/12 07:12:16;;;;;;;59.85;38.22;;;;;;;14.23;100.00;68355.25;4999905;28;20053;-83
2022/09/12 07:14:41;;;;;;;57.30;38.55;;;;;;;14.27;100.00;68353.31;5011947;28;20037;-83
2022/09/12 07:17:07;;;;;;;55.55;35.53;;;;;;;14.30;100.00;68354.63;5014452;28;20037;-83
2022/09/12 07:19:32;;;;;;;56.55;36.65;;;;;;;;;;5013641;28;20064;-83
2022/09/12 07:21:58;;;;;;;56.60;36.67;;;;;;;;;;5013783;28;20049;-82
2022/09/12 07:24:23;;;;;;;56.10;35.03;;;;;;;14.47;100.00;68380.84;5006807;28;20042;-83
2022/09/12 07:26:48;;;;;;;51.08;34.88;;;;;;;;;;5005135;28;20069;-83
2022/09/12 07:29:17;;;;;;;54.27;34.33;;;;;;;;;;5004365;28;20156;-82
2022/09/12 07:31:43;;;;;;;49.83;31.02;;;;;;;14.59;100.00;68389.19;5003292;28;20522;-83
2022/09/12 07:34:09;;;;;;;51.75;32.88;;;;;;;14.61;100.00;68392.03;5008306;28;20544;-83
2022/09/12 07:36:34;;;;;;;47.70;32.08;;;;;;;14.64;100.00;68394.88;5007703;28;20050;-82
2022/09/12 07:39:00;;;;;;;47.78;32.90;;;;;;;14.70;100.00;68398.44;5003095;28;20042;-83
2022/09/12 07:41:32;;;;;;;45.90;30.50;;;;;;;14.70;100.00;68401.13;5010643;28;20041;-82
2022/09/12 07:43:58;;;;;;;46.33;30.33;;;;;;;;;;5013207;28;20050;-83
2022/09/12 07:46:25;;;;;;;46.97;31.77;;;;;;;14.79;100.00;68411.41;5009372;28;20089;-83
2022/09/12 07:48:55;;;;;;;42.22;30.80;;;;;;;14.84;100.00;68417.63;5001030;28;20512;-83
2022/09/12 07:51:22;;;;;;;44.03;27.98;;;;;;;14.85;100.00;68416.13;5012074;28;20045;-84
2022/09/12 07:53:48;;;;;;;41.47;29.58;;;;;;;14.95;100.00;68429.59;5004365;28;20053;-83
2022/09/12 07:56:15;;;;;;;43.72;28.98;;;;;;;14.98;100.00;68427.66;5010059;28;20042;-83
2022/09/12 07:58:41;;;;;;;41.80;29.20;;;;;;;15.05;100.00;68441.00;5013168;28;20464;-83
2022/09/12 08:01:18;;;;;;;41.92;28.77;;;;;;;15.11;100.00;68447.25;5006810;28;20115;-83
2022/09/12 08:03:46;;;;;;;42.05;28.83;;;;;;;15.22;100.00;68456.53;5013170;28;20049;-83
2022/09/12 08:06:25;;;;;;;42.42;27.33;;;;;;;;;;5004302;28;20038;-83
2022/09/12 08:08:53;;;;;;;38.67;27.40;;;;;;;15.36;100.00;68472.47;5009671;28;20413;-83
2022/09/12 08:11:20;;;;;;;45.37;26.70;;;;;;;15.47;100.00;68485.00;4993897;28;20453;-83
2022/09/12 08:13:47;;;;;;;36.35;24.73;;;;;;;15.54;100.00;68492.41;4990842;28;20122;-85
2022/09/12 08:16:17;;;;;;;37.13;26.05;;;;;;;;;;5009041;28;20043;-84
2022/09/12 08:18:43;;;;;;;40.47;26.55;;;;;;;15.69;100.00;68511.66;5011616;28;20615;-84
2022/09/12 08:21:14;;;;;;;37.67;25.77;;;;;;;15.75;100.00;68513.13;5010160;28;20092;-85
2022/09/12 08:23:39;;;;;;;34.60;25.58;;;;;;;15.81;100.00;68525.31;5013072;28;20050;-84
2022/09/12 08:26:05;;;;;;;36.53;25.50;;;;;;;15.91;100.00;68536.13;5006286;28;20576;-83
2022/09/12 08:28:33;;;;;;;35.90;27.02;;;;;;;15.98;100.00;68544.13;5009063;28;20042;-83
2022/09/12 08:31:03;;;;;;;38.35;25.27;;;;;;;16.04;100.00;68547.69;5008344;28;20076;-84
2022/09/12 08:33:32;;;;;;;38.75;26.20;;;;;;;;;;4994447;28;20042;-84
2022/09/12 08:36:21;;;;;;;36.60;23.75;;;;;;;16.11;100.00;68558.34;4993811;28;20042;-83
2022/09/12 08:38:49;;;;;;;35.58;22.83;;;;;;;16.15;100.00;68563.50;4992436;28;20484;-84
2022/09/12 08:41:17;;;;;;;31.75;21.42;;;;;;;16.12;100.00;68557.38;4997779;28;20104;-84
2022/09/12 08:44:01;;;;;;;34.05;25.23;;;;;;;;;;5012379;28;20469;-84
2022/09/12 08:46:37;;;;;;;32.40;21.55;;;;;;;16.51;100.00;68600.69;5008706;28;20034;-84
2022/09/12 08:49:07;;;;;;;28.98;19.90;;;;;;;16.58;100.00;68610.81;5000042;28;20046;-84
2022/09/12 08:51:34;;;;;;;29.95;21.20;;;;;;;;;;5005905;28;20042;-84
2022/09/12 08:54:01;;;;;;;29.55;20.73;;;;;;;16.78;99.90;68630.94;4993872;28;20042;-84
2022/09/12 08:56:31;;;;;;;27.45;21.80;;;;;;;16.91;99.88;68645.19;4992591;28;20042;-84
2022/09/12 08:58:58;;;;;;;27.58;21.63;;;;;;;17.05;99.67;68661.16;5002446;28;20456;-84
2022/09/12 09:01:31;;;;;;;30.70;20.27;;;;;;;17.20;98.32;68680.38;5006761;28;20053;-84
2022/09/12 09:04:19;;;;;;;28.90;20.02;;;;;;;17.45;97.14;68707.78;5000758;28;20046;-84
2022/09/12 09:07:22;;;;;;;26.08;17.35;;;;;;;17.31;95.94;68690.25;4994936;28;20042;-84
2022/09/12 09:10:06;;;;;;;27.48;19.08;;;;;;;17.37;96.19;68696.50;5003368;28;20054;-84
2022/09/12 09:12:40;;;;;;;25.02;18.50;;;;;;;17.51;95.44;68711.94;5009914;28;20042;-84
2022/09/12 09:15:29;;;;;;;26.38;18.50;;;;;;;17.52;96.70;68710.38;5006272;28;20085;-84
2022/09/12 09:18:03;;;;;;;26.17;17.90;;;;;;;17.65;95.97;68725.22;4957601;28;20048;-84
2022/09/12 09:20:41;;;;;;;26.88;17.63;;;;;;;17.67;94.59;68730.19;5011841;28;20065;-84
2022/09/12 09:23:22;;;;;;;28.92;19.42;;;;;;;17.82;95.77;68744.06;5002521;28;20570;-84
2022/09/12 09:25:58;;;;;;;28.10;18.77;;;;;;;17.93;95.23;68758.75;5003570;28;20068;-84
2022/09/12 09:28:30;;;;;;;27.90;19.27;;;;;;;;;;5011045;28;20079;-84
2022/09/12 09:30:56;;;;;;;25.95;18.08;;;;;;;18.10;94.22;68778.16;4990015;28;20076;-84
2022/09/12 09:33:26;;;;;;;24.23;18.65;;;;;;;18.27;92.10;68800.25;5003759;28;20037;-84
2022/09/12 09:36:17;;;;;;;25.38;17.52;;;;;;;18.48;92.61;68823.06;5009703;28;20042;-84
2022/09/12 09:39:01;;;;;;;27.60;18.40;;;;;;;18.41;90.40;68815.06;4996824;28;20053;-84
2022/09/12 09:42:05;;;;;;;24.75;17.83;;;;;;;18.58;90.73;68829.09;4992574;28;20072;-84
2022/09/12 09:44:31;;;;;;;24.02;17.92;;;;;;;18.75;89.83;68847.38;4939566;28;20337;-84
2022/09/12 09:46:58;;;;;;;24.38;17.08;;;;;;;18.87;89.00;68864.38;4992027;28;20054;-85
2022/09/12 09:49:27;;;;;;;26.02;18.02;;;;;;;19.05;87.77;68881.66;4991440;28;20065;-84
2022/09/12 09:51:53;;;;;;;;;;;;;;;19.12;88.80;68889.66;5010779;28;20056;-84
2022/09/12 09:54:21;;;;;;;27.27;18.63;;;;;;;;;;4994654;28;20350;-84
2022/09/12 09:56:47;;;;;;;28.02;16.95;;;;;;;19.33;87.17;68912.50;4997701;28;20038;-85
2022/09/12 09:59:32;;;;;;;25.00;18.58;;;;;;;19.55;86.07;68943.03;5011971;28;20511;-84
2022/09/12 10:02:02;;;;;;;26.08;17.40;;;;;;;19.68;85.16;68954.06;5024669;28;20058;-84
2022/09/12 10:04:33;;;;;;;26.65;18.23;;;;;;;19.86;85.25;68974.66;5011137;28;20137;-84
2022/09/12 10:07:01;;;;;;;23.55;16.65;;;;;;;19.92;84.42;68983.63;5011213;28;20125;-84
2022/09/12 10:09:32;;;;;;;22.33;16.70;;;;;;;19.96;82.05;68985.50;5009173;28;20071;-84
2022/09/12 10:11:58;;;;;;;23.33;17.25;;;;;;;19.97;81.21;68986.66;5011801;28;20049;-85
2022/09/12 10:14:33;;;;;;;23.67;16.27;;;;;;;20.20;83.00;69010.25;5006511;28;20125;-84
2022/09/12 10:17:00;;;;;;;19.58;16.38;;;;;;;20.34;79.95;69031.09;4992447;28;20050;-84
2022/09/12 10:19:37;;;;;;;19.42;13.73;;;;;;;20.33;79.12;69029.94;5010552;28;20030;-84
2022/09/12 10:22:04;;;;;;;22.27;16.35;;;;;;;20.44;79.84;69039.22;4994080;28;20405;-84
2022/09/12 10:24:39;;;;;;;20.05;15.05;;;;;;;20.44;78.39;69036.53;4998449;28;20045;-84
2022/09/12 10:27:07;;;;;;;23.38;17.40;;;;;;;20.38;78.30;69030.25;5009285;28;20597;-84
2022/09/12 10:29:38;;;;;;;19.52;13.23;;;;;;;20.49;77.79;69042.81;5010653;28;20509;-85
2022/09/12 10:32:07;;;;;;;20.33;13.43;;;;;;;20.69;77.82;69067.28;5008252;28;20509;-84
2022/09/12 10:34:43;;;;;;;19.85;12.80;;;;;;;20.77;76.97;69071.00;5011663;28;20042;-84
2022/09/12 10:37:18;;;;;;;15.75;12.57;;;;;;;20.86;76.18;69084.00;5015689;28;20413;-84
2022/09/12 10:39:52;;;;;;;15.50;11.77;;;;;;;20.89;74.41;69087.44;5011548;28;20518;-84
2022/09/12 10:42:40;;;;;;;13.73;10.38;;;;;;;20.99;74.16;69100.44;5009615;28;20045;-84
2022/09/12 10:45:23;;;;;;;17.02;12.30;;;;;;;21.06;74.08;69111.16;4981137;28;20083;-84
2022/09/12 10:47:48;;;;;;;17.27;11.75;;;;;;;21.03;75.49;69102.31;5011316;28;20096;-84
2022/09/12 10:50:31;;;;;;;17.15;11.63;;;;;;;21.16;75.17;69117.75;5014153;28;20417;-84
2022/09/12 10:53:17;;;;;;;13.45;9.23;;;;;;;21.50;74.56;69154.97;5014535;28;20056;-84
2022/09/12 10:56:01;;;;;;;16.42;9.93;;;;;;;21.46;71.51;69153.09;5008261;28;20038;-84
2022/09/12 10:58:58;;;;;;;13.77;10.05;;;;;;;21.50;73.05;69154.97;5002697;28;20034;-84
2022/09/12 11:01:36;;;;;;;15.68;8.98;;;;;;;21.71;72.45;69181.69;5014109;28;20058;-85
2022/09/12 11:04:14;;;;;;;11.05;7.85;;;;;;;21.74;70.66;69182.41;5023946;28;20105;-84
2022/09/12 11:07:04;;;;;;;11.57;8.95;;;;;;;21.60;68.74;69166.41;5020828;28;20038;-84
2022/09/12 11:09:49;;;;;;;11.88;9.10;;;;;;;21.70;70.49;69183.25;5022009;28;20038;-85
2022/09/12 11:12:14;;;;;;;10.73;7.05;;;;;;;21.77;69.13;69188.00;5021466;28;20117;-85
2022/09/12 11:15:18;;;;;;;10.77;6.13;;;;;;;21.77;68.23;69182.56;5020583;28;20046;-84
2022/09/12 11:18:17;;;;;;;9.60;6.60;;;;;;;21.91;68.23;69200.72;4963446;28;20046;-86
2022/09/12 11:20:42;;;;;;;;;;;;;;;21.78;67.17;69186.41;4988904;28;20046;-86
2022/09/12 11:23:30;;;;;;;8.63;6.50;;;;;;;21.81;68.42;69190.44;5013923;28;19917;-85
2022/09/12 11:26:03;;;;;;;9.88;7.03;;;;;;;21.99;66.94;69215.31;5025283;28;20053;-84
2022/09/12 11:29:09;;;;;;;8.48;6.50;;;;;;;22.11;67.36;69223.06;5020433;28;20038;-85
2022/09/12 11:31:43;;;;;;;9.85;6.90;;;;;;;22.17;67.40;69227.22;5015149;28;20106;-84
2022/09/12 11:34:10;;;;;;;9.90;6.22;;;;;;;22.27;66.87;69241.97;5014963;28;20041;-84
2022/09/12 11:36:57;;;;;;;9.15;6.18;;;;;;;22.40;65.17;69253.00;5021684;28;20123;-85
2022/09/12 11:39:38;;;;;;;7.35;5.20;;;;;;;22.55;65.03;69275.03;5017384;28;20060;-84
2022/09/12 11:42:14;;;;;;;6.32;5.03;;;;;;;22.72;64.87;69289.06;5021341;28;20045;-84
2022/09/12 11:44:45;;;;;;;8.50;6.07;;;;;;;22.65;64.67;69281.06;5048369;22;20445;-78
2022/09/12 11:47:12;;;;;;;7.70;4.70;;;;;;;22.58;62.64;69273.03;5029510;28;20080;-78
2022/09/12 11:49:47;;;;;;;6.95;5.65;;;;;;;22.61;63.12;69279.75;5027922;28;20052;-78
2022/09/12 11:52:14;;;;;;;7.97;4.90;;;;;;;22.59;63.59;69282.91;5035005;28;20226;-78
2022/09/12 11:54:52;;;;;;;7.22;5.40;;;;;;;22.67;62.79;69286.03;5029987;28;20514;-78
2022/09/12 11:57:22;;;;;;;7.47;5.30;;;;;;;22.88;63.18;69312.25;5037787;28;20619;-78
2022/09/12 11:59:52;;;;;;;6.00;4.00;;;;;;;22.85;62.91;69303.97;5026030;28;20046;-78
2022/09/12 12:02:38;;;;;;;4.90;3.65;;;;;;;23.15;61.83;69340.47;5025032;28;20151;-78
2022/09/12 12:05:22;;;;;;;6.93;4.80;;;;;;;23.27;60.71;69353.66;5036092;28;20214;-78